sensor_id;sensor_type;location;lat;lon;timestamp;temperature;humidity
39919;DHT22;25589;51.552;13.424;2023-05-18T00:02:14;13.00;79.20
39919;DHT22;25589;51.552;13.424;2023-05-18T00:04:42;12.70;78.90
39919;DHT22;25589;51.552;13.424;2023-05-18T00:07:08;12.50;78.80
39919;DHT22;25589;51.552;13.424;2023-05-18T00:09:34;12.50;79.10
39919;DHT22;25589;51.552;13.424;2023-05-18T00:12:02;12.50;79.10
39919;DHT22;25589;51.552;13.424;2023-05-18T00:14:27;12.00;79.10
39919;DHT22;25589;51.552;13.424;2023-05-18T00:16:53;12.30;79.60
39919;DHT22;25589;51.552;13.424;2023-05-18T00:19:20;12.30;80.30
39919;DHT22;25589;51.552;13.424;2023-05-18T00:21:47;12.30;80.60
39919;DHT22;25589;51.552;13.424;2023-05-18T00:24:14;12.30;80.70
39919;DHT22;25589;51.552;13.424;2023-05-18T00:26:45;12.50;81.20
39919;DHT22;25589;51.552;13.424;2023-05-18T00:29:11;12.30;81.00
39919;DHT22;25589;51.552;13.424;2023-05-18T00:31:37;12.30;81.10
39919;DHT22;25589;51.552;13.424;2023-05-18T00:34:08;12.30;81.50
39919;DHT22;25589;51.552;13.424;2023-05-18T00:36:35;12.20;81.70
39919;DHT22;25589;51.552;13.424;2023-05-18T00:39:02;12.20;82.00
39919;DHT22;25589;51.552;13.424;2023-05-18T00:41:28;12.10;82.40
39919;DHT22;25589;51.552;13.424;2023-05-18T00:43:54;12.10;82.70
39919;DHT22;25589;51.552;13.424;2023-05-18T00:46:21;12.00;83.00
39919;DHT22;25589;51.552;13.424;2023-05-18T00:48:48;12.00;83.70
39919;DHT22;25589;51.552;13.424;2023-05-18T00:51:15;12.20;83.90
39919;DHT22;25589;51.552;13.424;2023-05-18T00:53:41;12.00;84.00
39919;DHT22;25589;51.552;13.424;2023-05-18T00:56:07;12.00;84.20
39919;DHT22;25589;51.552;13.424;2023-05-18T00:58:33;12.00;84.10
39919;DHT22;25589;51.552;13.424;2023-05-18T01:00:59;12.00;84.40
39919;DHT22;25589;51.552;13.424;2023-05-18T01:03:28;12.00;84.50
39919;DHT22;25589;51.552;13.424;2023-05-18T01:05:55;12.00;84.80
39919;DHT22;25589;51.552;13.424;2023-05-18T01:08:23;12.00;85.10
39919;DHT22;25589;51.552;13.424;2023-05-18T01:11:39;11.80;85.90
39919;DHT22;25589;51.552;13.424;2023-05-18T01:14:29;11.70;86.50
39919;DHT22;25589;51.552;13.424;2023-05-18T01:17:04;11.70;86.90
39919;DHT22;25589;51.552;13.424;2023-05-18T01:19:59;11.70;87.70
39919;DHT22;25589;51.552;13.424;2023-05-18T01:25:33;11.70;88.80
39919;DHT22;25589;51.552;13.424;2023-05-18T01:28:11;11.50;89.20
39919;DHT22;25589;51.552;13.424;2023-05-18T01:30:40;11.50;89.20
39919;DHT22;25589;51.552;13.424;2023-05-18T01:33:10;11.50;89.70
39919;DHT22;25589;51.552;13.424;2023-05-18T01:35:36;11.90;90.30
39919;DHT22;25589;51.552;13.424;2023-05-18T01:38:02;11.40;90.40
39919;DHT22;25589;51.552;13.424;2023-05-18T01:40:34;11.50;90.60
39919;DHT22;25589;51.552;13.424;2023-05-18T01:43:10;11.30;90.70
39919;DHT22;25589;51.552;13.424;2023-05-18T01:45:40;11.30;91.00
39919;DHT22;25589;51.552;13.424;2023-05-18T01:48:06;11.20;91.20
39919;DHT22;25589;51.552;13.424;2023-05-18T01:53:11;11.20;91.60
39919;DHT22;25589;51.552;13.424;2023-05-18T01:55:39;11.20;91.70
39919;DHT22;25589;51.552;13.424;2023-05-18T01:58:07;11.10;91.90
39919;DHT22;25589;51.552;13.424;2023-05-18T02:00:33;11.10;92.20
39919;DHT22;25589;51.552;13.424;2023-05-18T02:03:00;11.10;92.40
39919;DHT22;25589;51.552;13.424;2023-05-18T02:07:52;11.10;92.70
39919;DHT22;25589;51.552;13.424;2023-05-18T02:10:17;11.10;93.00
39919;DHT22;25589;51.552;13.424;2023-05-18T02:12:43;11.00;93.10
39919;DHT22;25589;51.552;13.424;2023-05-18T02:15:09;11.00;93.20
39919;DHT22;25589;51.552;13.424;2023-05-18T02:17:35;10.00;93.00
39919;DHT22;25589;51.552;13.424;2023-05-18T02:20:04;10.50;93.40
39919;DHT22;25589;51.552;13.424;2023-05-18T02:22:33;10.80;93.90
39919;DHT22;25589;51.552;13.424;2023-05-18T02:24:59;10.00;94.00
39919;DHT22;25589;51.552;13.424;2023-05-18T02:27:25;11.20;94.50
39919;DHT22;25589;51.552;13.424;2023-05-18T02:29:51;10.70;94.60
39919;DHT22;25589;51.552;13.424;2023-05-18T02:32:17;10.70;94.70
39919;DHT22;25589;51.552;13.424;2023-05-18T02:34:44;10.60;95.00
39919;DHT22;25589;51.552;13.424;2023-05-18T02:37:10;10.60;95.30
39919;DHT22;25589;51.552;13.424;2023-05-18T02:39:38;10.60;95.50
39919;DHT22;25589;51.552;13.424;2023-05-18T02:42:04;9.50;95.40
39919;DHT22;25589;51.552;13.424;2023-05-18T02:44:30;10.10;95.80
39919;DHT22;25589;51.552;13.424;2023-05-18T02:46:56;10.70;96.20
39919;DHT22;25589;51.552;13.424;2023-05-18T02:49:21;10.40;96.40
39919;DHT22;25589;51.552;13.424;2023-05-18T02:51:47;10.60;96.80
39919;DHT22;25589;51.552;13.424;2023-05-18T02:54:13;9.80;96.90
39919;DHT22;25589;51.552;13.424;2023-05-18T02:56:40;10.20;97.30
39919;DHT22;25589;51.552;13.424;2023-05-18T02:59:29;10.30;97.80
39919;DHT22;25589;51.552;13.424;2023-05-18T03:01:54;10.20;98.10
39919;DHT22;25589;51.552;13.424;2023-05-18T03:04:20;10.20;98.40
39919;DHT22;25589;51.552;13.424;2023-05-18T03:06:50;9.90;98.90
39919;DHT22;25589;51.552;13.424;2023-05-18T03:09:18;10.10;99.30
39919;DHT22;25589;51.552;13.424;2023-05-18T03:11:44;9.90;99.60
39919;DHT22;25589;51.552;13.424;2023-05-18T03:14:10;9.80;99.90
39919;DHT22;25589;51.552;13.424;2023-05-18T03:16:35;10.70;99.90
39919;DHT22;25589;51.552;13.424;2023-05-18T03:19:06;9.70;99.90
39919;DHT22;25589;51.552;13.424;2023-05-18T03:21:35;9.60;99.90
39919;DHT22;25589;51.552;13.424;2023-05-18T03:24:01;9.70;99.90
39919;DHT22;25589;51.552;13.424;2023-05-18T03:26:28;9.70;99.90
39919;DHT22;25589;51.552;13.424;2023-05-18T03:28:57;9.70;99.90
39919;DHT22;25589;51.552;13.424;2023-05-18T03:31:24;10.10;99.90
39919;DHT22;25589;51.552;13.424;2023-05-18T03:33:50;9.80;99.90
39919;DHT22;25589;51.552;13.424;2023-05-18T03:36:16;9.50;99.90
39919;DHT22;25589;51.552;13.424;2023-05-18T03:38:42;9.70;99.90
39919;DHT22;25589;51.552;13.424;2023-05-18T03:41:12;9.70;99.90
39919;DHT22;25589;51.552;13.424;2023-05-18T03:43:37;9.70;99.90
39919;DHT22;25589;51.552;13.424;2023-05-18T03:46:03;9.60;99.90
39919;DHT22;25589;51.552;13.424;2023-05-18T03:48:29;9.70;99.90
39919;DHT22;25589;51.552;13.424;2023-05-18T03:50:55;9.60;99.90
39919;DHT22;25589;51.552;13.424;2023-05-18T03:53:21;9.60;99.90
39919;DHT22;25589;51.552;13.424;2023-05-18T03:55:47;9.60;99.90
39919;DHT22;25589;51.552;13.424;2023-05-18T03:58:16;10.10;99.90
39919;DHT22;25589;51.552;13.424;2023-05-18T04:00:45;9.60;99.90
39919;DHT22;25589;51.552;13.424;2023-05-18T04:03:11;9.50;99.90
39919;DHT22;25589;51.552;13.424;2023-05-18T04:05:40;9.80;99.90
39919;DHT22;25589;51.552;13.424;2023-05-18T04:08:08;10.40;99.90
39919;DHT22;25589;51.552;13.424;2023-05-18T04:10:34;9.50;99.90
39919;DHT22;25589;51.552;13.424;2023-05-18T04:13:00;9.60;99.90
39919;DHT22;25589;51.552;13.424;2023-05-18T04:15:25;9.70;99.90
39919;DHT22;25589;51.552;13.424;2023-05-18T04:17:51;9.70;99.90
39919;DHT22;25589;51.552;13.424;2023-05-18T04:20:18;10.50;99.90
39919;DHT22;25589;51.552;13.424;2023-05-18T04:22:47;9.60;99.90
39919;DHT22;25589;51.552;13.424;2023-05-18T04:25:14;9.60;99.90
39919;DHT22;25589;51.552;13.424;2023-05-18T04:27:41;9.50;99.90
39919;DHT22;25589;51.552;13.424;2023-05-18T04:30:08;9.20;99.90
39919;DHT22;25589;51.552;13.424;2023-05-18T04:32:39;9.50;99.90
39919;DHT22;25589;51.552;13.424;2023-05-18T04:35:09;9.60;99.90
39919;DHT22;25589;51.552;13.424;2023-05-18T04:37:35;9.70;99.90
39919;DHT22;25589;51.552;13.424;2023-05-18T04:40:08;9.70;99.90
39919;DHT22;25589;51.552;13.424;2023-05-18T04:42:42;10.00;99.90
39919;DHT22;25589;51.552;13.424;2023-05-18T04:45:17;10.20;99.90
39919;DHT22;25589;51.552;13.424;2023-05-18T04:47:46;10.20;99.90
39919;DHT22;25589;51.552;13.424;2023-05-18T04:50:16;9.90;99.90
39919;DHT22;25589;51.552;13.424;2023-05-18T04:52:46;10.80;99.90
39919;DHT22;25589;51.552;13.424;2023-05-18T04:55:15;10.20;99.90
39919;DHT22;25589;51.552;13.424;2023-05-18T04:57:41;10.10;99.90
39919;DHT22;25589;51.552;13.424;2023-05-18T05:00:07;10.20;99.90
39919;DHT22;25589;51.552;13.424;2023-05-18T05:02:34;10.30;99.90
39919;DHT22;25589;51.552;13.424;2023-05-18T05:04:59;10.90;99.90
39919;DHT22;25589;51.552;13.424;2023-05-18T05:07:25;10.40;99.90
39919;DHT22;25589;51.552;13.424;2023-05-18T05:09:50;10.40;99.90
39919;DHT22;25589;51.552;13.424;2023-05-18T05:12:16;10.50;99.90
39919;DHT22;25589;51.552;13.424;2023-05-18T05:14:42;10.50;99.90
39919;DHT22;25589;51.552;13.424;2023-05-18T05:17:07;10.50;99.90
39919;DHT22;25589;51.552;13.424;2023-05-18T05:19:33;11.00;99.90
39919;DHT22;25589;51.552;13.424;2023-05-18T05:21:58;10.60;99.90
39919;DHT22;25589;51.552;13.424;2023-05-18T05:24:24;11.30;99.90
39919;DHT22;25589;51.552;13.424;2023-05-18T05:26:49;10.80;99.90
39919;DHT22;25589;51.552;13.424;2023-05-18T05:29:15;11.20;99.90
39919;DHT22;25589;51.552;13.424;2023-05-18T05:31:43;10.90;99.90
39919;DHT22;25589;51.552;13.424;2023-05-18T05:34:08;11.00;99.90
39919;DHT22;25589;51.552;13.424;2023-05-18T05:36:36;10.90;99.90
39919;DHT22;25589;51.552;13.424;2023-05-18T05:39:02;11.10;99.90
39919;DHT22;25589;51.552;13.424;2023-05-18T05:41:29;10.90;99.90
39919;DHT22;25589;51.552;13.424;2023-05-18T05:43:54;11.20;99.90
39919;DHT22;25589;51.552;13.424;2023-05-18T05:46:21;11.50;99.90
39919;DHT22;25589;51.552;13.424;2023-05-18T05:48:46;11.20;99.90
39919;DHT22;25589;51.552;13.424;2023-05-18T05:51:12;11.20;99.90
39919;DHT22;25589;51.552;13.424;2023-05-18T05:53:38;11.20;99.90
39919;DHT22;25589;51.552;13.424;2023-05-18T05:56:04;10.80;99.90
39919;DHT22;25589;51.552;13.424;2023-05-18T05:58:34;11.20;99.90
39919;DHT22;25589;51.552;13.424;2023-05-18T06:01:00;11.30;99.90
39919;DHT22;25589;51.552;13.424;2023-05-18T06:03:27;11.40;99.90
39919;DHT22;25589;51.552;13.424;2023-05-18T06:05:54;11.50;99.90
39919;DHT22;25589;51.552;13.424;2023-05-18T06:08:21;11.60;99.90
39919;DHT22;25589;51.552;13.424;2023-05-18T06:10:49;11.70;99.90
39919;DHT22;25589;51.552;13.424;2023-05-18T06:13:15;11.60;99.90
39919;DHT22;25589;51.552;13.424;2023-05-18T06:15:48;11.30;99.90
39919;DHT22;25589;51.552;13.424;2023-05-18T06:18:13;11.70;99.90
39919;DHT22;25589;51.552;13.424;2023-05-18T06:20:39;11.70;99.90
39919;DHT22;25589;51.552;13.424;2023-05-18T06:23:05;12.10;99.90
39919;DHT22;25589;51.552;13.424;2023-05-18T06:25:50;11.90;99.90
39919;DHT22;25589;51.552;13.424;2023-05-18T06:28:28;12.00;99.90
39919;DHT22;25589;51.552;13.424;2023-05-18T06:31:17;12.20;99.90
39919;DHT22;25589;51.552;13.424;2023-05-18T06:33:49;12.10;99.90
39919;DHT22;25589;51.552;13.424;2023-05-18T06:36:16;12.20;99.90
39919;DHT22;25589;51.552;13.424;2023-05-18T06:38:41;12.20;99.90
39919;DHT22;25589;51.552;13.424;2023-05-18T06:41:07;12.50;99.90
39919;DHT22;25589;51.552;13.424;2023-05-18T06:43:33;12.20;99.90
39919;DHT22;25589;51.552;13.424;2023-05-18T06:46:19;12.40;99.90
39919;DHT22;25589;51.552;13.424;2023-05-18T06:48:45;12.50;99.90
39919;DHT22;25589;51.552;13.424;2023-05-18T06:51:11;12.60;99.90
39919;DHT22;25589;51.552;13.424;2023-05-18T06:53:37;12.70;99.90
39919;DHT22;25589;51.552;13.424;2023-05-18T06:56:03;12.90;99.90
39919;DHT22;25589;51.552;13.424;2023-05-18T06:58:29;12.90;99.90
39919;DHT22;25589;51.552;13.424;2023-05-18T07:00:57;13.00;99.90
39919;DHT22;25589;51.552;13.424;2023-05-18T07:03:23;13.00;99.90
39919;DHT22;25589;51.552;13.424;2023-05-18T07:05:49;13.00;99.90
39919;DHT22;25589;51.552;13.424;2023-05-18T07:08:14;13.00;99.50
39919;DHT22;25589;51.552;13.424;2023-05-18T07:10:40;12.90;99.30
39919;DHT22;25589;51.552;13.424;2023-05-18T07:13:05;13.10;99.30
39919;DHT22;25589;51.552;13.424;2023-05-18T07:15:31;13.30;99.40
39919;DHT22;25589;51.552;13.424;2023-05-18T07:17:56;13.20;99.50
39919;DHT22;25589;51.552;13.424;2023-05-18T07:20:22;13.30;99.50
39919;DHT22;25589;51.552;13.424;2023-05-18T07:22:47;12.80;99.10
39919;DHT22;25589;51.552;13.424;2023-05-18T07:25:13;13.40;99.20
39919;DHT22;25589;51.552;13.424;2023-05-18T07:27:38;13.30;99.00
39919;DHT22;25589;51.552;13.424;2023-05-18T07:30:05;13.40;99.10
39919;DHT22;25589;51.552;13.424;2023-05-18T07:32:31;13.60;98.60
39919;DHT22;25589;51.552;13.424;2023-05-18T07:34:56;13.60;98.10
39919;DHT22;25589;51.552;13.424;2023-05-18T07:37:22;13.80;97.60
39919;DHT22;25589;51.552;13.424;2023-05-18T07:39:47;13.80;96.90
39919;DHT22;25589;51.552;13.424;2023-05-18T07:42:13;14.00;96.60
39919;DHT22;25589;51.552;13.424;2023-05-18T07:44:38;14.20;96.20
39919;DHT22;25589;51.552;13.424;2023-05-18T07:47:04;14.20;95.40
39919;DHT22;25589;51.552;13.424;2023-05-18T07:49:30;14.40;95.10
39919;DHT22;25589;51.552;13.424;2023-05-18T07:51:57;14.60;94.60
39919;DHT22;25589;51.552;13.424;2023-05-18T07:54:22;14.60;94.10
39919;DHT22;25589;51.552;13.424;2023-05-18T07:56:48;14.60;94.30
39919;DHT22;25589;51.552;13.424;2023-05-18T07:59:13;15.20;94.00
39919;DHT22;25589;51.552;13.424;2023-05-18T08:01:39;14.80;93.60
39919;DHT22;25589;51.552;13.424;2023-05-18T08:04:05;14.80;93.90
39919;DHT22;25589;51.552;13.424;2023-05-18T08:06:31;15.00;92.60
39919;DHT22;25589;51.552;13.424;2023-05-18T08:08:57;15.10;91.70
39919;DHT22;25589;51.552;13.424;2023-05-18T08:11:23;15.30;91.60
39919;DHT22;25589;51.552;13.424;2023-05-18T08:13:48;14.90;91.00
39919;DHT22;25589;51.552;13.424;2023-05-18T08:16:14;15.60;90.80
39919;DHT22;25589;51.552;13.424;2023-05-18T08:18:40;14.80;90.50
39919;DHT22;25589;51.552;13.424;2023-05-18T08:21:06;15.10;90.40
39919;DHT22;25589;51.552;13.424;2023-05-18T08:23:35;15.10;89.80
39919;DHT22;25589;51.552;13.424;2023-05-18T08:26:01;15.30;88.90
39919;DHT22;25589;51.552;13.424;2023-05-18T08:28:30;15.40;87.60
39919;DHT22;25589;51.552;13.424;2023-05-18T08:30:56;15.10;88.40
39919;DHT22;25589;51.552;13.424;2023-05-18T08:33:21;15.70;88.60
39919;DHT22;25589;51.552;13.424;2023-05-18T08:35:50;15.30;87.70
39919;DHT22;25589;51.552;13.424;2023-05-18T08:38:16;16.30;86.20
39919;DHT22;25589;51.552;13.424;2023-05-18T08:40:45;16.30;85.40
39919;DHT22;25589;51.552;13.424;2023-05-18T08:43:15;16.50;83.10
39919;DHT22;25589;51.552;13.424;2023-05-18T08:45:53;16.80;81.80
39919;DHT22;25589;51.552;13.424;2023-05-18T08:48:21;16.80;79.40
39919;DHT22;25589;51.552;13.424;2023-05-18T08:50:47;16.80;78.60
39919;DHT22;25589;51.552;13.424;2023-05-18T08:53:15;17.00;77.40
39919;DHT22;25589;51.552;13.424;2023-05-18T08:55:44;17.10;76.70
39919;DHT22;25589;51.552;13.424;2023-05-18T08:58:12;17.30;76.20
39919;DHT22;25589;51.552;13.424;2023-05-18T09:00:38;17.40;75.90
39919;DHT22;25589;51.552;13.424;2023-05-18T09:03:04;17.80;75.60
39919;DHT22;25589;51.552;13.424;2023-05-18T09:05:30;17.70;74.20
39919;DHT22;25589;51.552;13.424;2023-05-18T09:07:56;17.60;73.20
39919;DHT22;25589;51.552;13.424;2023-05-18T09:10:23;17.50;74.30
39919;DHT22;25589;51.552;13.424;2023-05-18T09:12:50;18.10;74.40
39919;DHT22;25589;51.552;13.424;2023-05-18T09:15:17;17.90;73.20
39919;DHT22;25589;51.552;13.424;2023-05-18T09:17:42;17.80;73.10
39919;DHT22;25589;51.552;13.424;2023-05-18T09:20:08;17.50;73.80
39919;DHT22;25589;51.552;13.424;2023-05-18T09:22:34;17.30;73.30
39919;DHT22;25589;51.552;13.424;2023-05-18T09:25:01;17.80;72.70
39919;DHT22;25589;51.552;13.424;2023-05-18T09:29:55;18.40;71.50
39919;DHT22;25589;51.552;13.424;2023-05-18T09:32:22;18.40;69.40
39919;DHT22;25589;51.552;13.424;2023-05-18T09:34:48;18.80;67.90
39919;DHT22;25589;51.552;13.424;2023-05-18T09:37:18;19.10;67.20
39919;DHT22;25589;51.552;13.424;2023-05-18T09:39:45;18.90;68.00
39919;DHT22;25589;51.552;13.424;2023-05-18T09:42:25;18.70;69.70
39919;DHT22;25589;51.552;13.424;2023-05-18T09:44:51;19.00;66.50
39919;DHT22;25589;51.552;13.424;2023-05-18T09:47:16;19.20;65.50
39919;DHT22;25589;51.552;13.424;2023-05-18T09:49:42;19.40;64.70
39919;DHT22;25589;51.552;13.424;2023-05-18T09:52:07;19.50;64.90
39919;DHT22;25589;51.552;13.424;2023-05-18T09:54:35;19.60;64.30
39919;DHT22;25589;51.552;13.424;2023-05-18T09:57:02;19.60;64.80
39919;DHT22;25589;51.552;13.424;2023-05-18T09:59:28;19.20;64.90
39919;DHT22;25589;51.552;13.424;2023-05-18T10:02:00;19.30;64.50
39919;DHT22;25589;51.552;13.424;2023-05-18T10:07:15;19.80;61.20
39919;DHT22;25589;51.552;13.424;2023-05-18T10:09:43;19.90;61.80
39919;DHT22;25589;51.552;13.424;2023-05-18T10:12:17;20.10;61.50
39919;DHT22;25589;51.552;13.424;2023-05-18T10:14:44;19.90;62.80
39919;DHT22;25589;51.552;13.424;2023-05-18T10:17:14;19.90;60.00
39919;DHT22;25589;51.552;13.424;2023-05-18T10:19:41;19.90;60.70
39919;DHT22;25589;51.552;13.424;2023-05-18T10:22:07;19.70;61.20
39919;DHT22;25589;51.552;13.424;2023-05-18T10:24:37;19.20;61.10
39919;DHT22;25589;51.552;13.424;2023-05-18T10:27:07;19.60;60.80
39919;DHT22;25589;51.552;13.424;2023-05-18T10:29:35;20.10;59.20
39919;DHT22;25589;51.552;13.424;2023-05-18T10:32:03;20.20;59.50
39919;DHT22;25589;51.552;13.424;2023-05-18T10:34:31;19.90;61.60
39919;DHT22;25589;51.552;13.424;2023-05-18T10:37:00;19.40;61.00
39919;DHT22;25589;51.552;13.424;2023-05-18T10:39:28;19.40;62.10
39919;DHT22;25589;51.552;13.424;2023-05-18T10:41:55;19.40;63.80
39919;DHT22;25589;51.552;13.424;2023-05-18T10:44:23;19.30;62.40
39919;DHT22;25589;51.552;13.424;2023-05-18T10:46:49;19.20;63.30
39919;DHT22;25589;51.552;13.424;2023-05-18T10:49:16;19.00;63.30
39919;DHT22;25589;51.552;13.424;2023-05-18T10:51:44;19.00;63.90
39919;DHT22;25589;51.552;13.424;2023-05-18T10:54:13;19.10;63.20
39919;DHT22;25589;51.552;13.424;2023-05-18T10:56:45;18.90;63.80
39919;DHT22;25589;51.552;13.424;2023-05-18T10:59:12;19.40;61.70
39919;DHT22;25589;51.552;13.424;2023-05-18T11:01:39;19.40;62.30
39919;DHT22;25589;51.552;13.424;2023-05-18T11:04:08;19.80;61.00
39919;DHT22;25589;51.552;13.424;2023-05-18T11:06:34;19.70;61.90
39919;DHT22;25589;51.552;13.424;2023-05-18T11:09:00;19.90;60.50
39919;DHT22;25589;51.552;13.424;2023-05-18T11:11:27;20.20;59.10
39919;DHT22;25589;51.552;13.424;2023-05-18T11:14:00;22.00;58.00
39919;DHT22;25589;51.552;13.424;2023-05-18T11:16:33;21.20;56.20
39919;DHT22;25589;51.552;13.424;2023-05-18T11:19:07;21.10;57.00
39919;DHT22;25589;51.552;13.424;2023-05-18T11:26:51;21.10;55.20
39919;DHT22;25589;51.552;13.424;2023-05-18T11:29:19;21.20;55.80
39919;DHT22;25589;51.552;13.424;2023-05-18T11:31:46;21.20;55.60
39919;DHT22;25589;51.552;13.424;2023-05-18T11:34:41;20.80;56.80
39919;DHT22;25589;51.552;13.424;2023-05-18T11:37:15;20.80;57.20
39919;DHT22;25589;51.552;13.424;2023-05-18T11:39:52;20.80;56.50
39919;DHT22;25589;51.552;13.424;2023-05-18T11:42:18;20.80;56.70
39919;DHT22;25589;51.552;13.424;2023-05-18T11:44:51;20.90;56.70
39919;DHT22;25589;51.552;13.424;2023-05-18T11:47:20;21.50;55.20
39919;DHT22;25589;51.552;13.424;2023-05-18T11:49:47;21.70;55.00
39919;DHT22;25589;51.552;13.424;2023-05-18T11:52:19;21.90;55.10
39919;DHT22;25589;51.552;13.424;2023-05-18T11:54:49;22.00;54.00
39919;DHT22;25589;51.552;13.424;2023-05-18T11:57:17;21.90;54.70
39919;DHT22;25589;51.552;13.424;2023-05-18T11:59:47;22.00;53.90
39919;DHT22;25589;51.552;13.424;2023-05-18T12:02:29;22.10;53.80
39919;DHT22;25589;51.552;13.424;2023-05-18T12:04:56;22.20;52.90
39919;DHT22;25589;51.552;13.424;2023-05-18T12:07:22;22.00;53.30
39919;DHT22;25589;51.552;13.424;2023-05-18T12:09:49;22.00;52.20
39919;DHT22;25589;51.552;13.424;2023-05-18T12:12:17;22.00;52.20
39919;DHT22;25589;51.552;13.424;2023-05-18T12:14:54;22.00;52.80
39919;DHT22;25589;51.552;13.424;2023-05-18T12:17:20;22.10;52.50
39919;DHT22;25589;51.552;13.424;2023-05-18T12:19:47;21.90;52.20
39919;DHT22;25589;51.552;13.424;2023-05-18T12:22:14;21.90;52.40
39919;DHT22;25589;51.552;13.424;2023-05-18T12:24:41;22.20;51.50
39919;DHT22;25589;51.552;13.424;2023-05-18T12:27:09;22.10;52.30
39919;DHT22;25589;51.552;13.424;2023-05-18T12:29:39;22.10;52.50
39919;DHT22;25589;51.552;13.424;2023-05-18T12:32:09;22.30;52.20
39919;DHT22;25589;51.552;13.424;2023-05-18T12:34:36;22.20;52.60
39919;DHT22;25589;51.552;13.424;2023-05-18T12:37:02;22.20;53.00
39919;DHT22;25589;51.552;13.424;2023-05-18T12:39:28;22.10;52.70
39919;DHT22;25589;51.552;13.424;2023-05-18T12:42:10;22.20;53.00
39919;DHT22;25589;51.552;13.424;2023-05-18T12:44:37;22.00;52.60
39919;DHT22;25589;51.552;13.424;2023-05-18T12:47:02;22.00;51.80
39919;DHT22;25589;51.552;13.424;2023-05-18T12:49:28;21.90;52.20
39919;DHT22;25589;51.552;13.424;2023-05-18T12:51:54;21.80;51.70
39919;DHT22;25589;51.552;13.424;2023-05-18T12:54:27;21.80;52.00
39919;DHT22;25589;51.552;13.424;2023-05-18T12:56:55;22.00;52.00
39919;DHT22;25589;51.552;13.424;2023-05-18T12:59:27;22.40;50.00
39919;DHT22;25589;51.552;13.424;2023-05-18T13:01:56;22.40;49.40
39919;DHT22;25589;51.552;13.424;2023-05-18T13:04:30;22.50;49.80
39919;DHT22;25589;51.552;13.424;2023-05-18T13:06:56;22.60;49.80
39919;DHT22;25589;51.552;13.424;2023-05-18T13:09:22;22.30;51.00
39919;DHT22;25589;51.552;13.424;2023-05-18T13:11:51;22.10;52.00
39919;DHT22;25589;51.552;13.424;2023-05-18T13:14:19;22.20;51.50
39919;DHT22;25589;51.552;13.424;2023-05-18T13:16:49;21.80;51.80
39919;DHT22;25589;51.552;13.424;2023-05-18T13:19:16;22.10;51.30
39919;DHT22;25589;51.552;13.424;2023-05-18T13:21:45;22.50;51.50
39919;DHT22;25589;51.552;13.424;2023-05-18T13:24:11;22.40;50.10
39919;DHT22;25589;51.552;13.424;2023-05-18T13:26:37;22.50;50.00
39919;DHT22;25589;51.552;13.424;2023-05-18T13:29:03;22.70;49.90
39919;DHT22;25589;51.552;13.424;2023-05-18T13:31:29;22.70;49.60
39919;DHT22;25589;51.552;13.424;2023-05-18T13:33:54;22.80;49.20
39919;DHT22;25589;51.552;13.424;2023-05-18T13:36:20;23.10;49.30
39919;DHT22;25589;51.552;13.424;2023-05-18T13:38:46;23.50;48.60
39919;DHT22;25589;51.552;13.424;2023-05-18T13:41:12;23.60;48.40
39919;DHT22;25589;51.552;13.424;2023-05-18T13:43:40;23.50;48.00
39919;DHT22;25589;51.552;13.424;2023-05-18T13:46:07;23.30;48.30
39919;DHT22;25589;51.552;13.424;2023-05-18T13:48:32;23.10;48.20
39919;DHT22;25589;51.552;13.424;2023-05-18T13:50:58;22.90;48.20
39919;DHT22;25589;51.552;13.424;2023-05-18T13:53:24;22.90;48.60
39919;DHT22;25589;51.552;13.424;2023-05-18T13:55:49;23.40;48.30
39919;DHT22;25589;51.552;13.424;2023-05-18T13:58:15;23.50;47.70
39919;DHT22;25589;51.552;13.424;2023-05-18T14:00:41;23.70;47.40
39919;DHT22;25589;51.552;13.424;2023-05-18T14:03:07;23.50;47.80
39919;DHT22;25589;51.552;13.424;2023-05-18T14:05:34;23.90;47.20
39919;DHT22;25589;51.552;13.424;2023-05-18T14:08:00;23.60;47.20
39919;DHT22;25589;51.552;13.424;2023-05-18T14:10:26;23.90;47.30
39919;DHT22;25589;51.552;13.424;2023-05-18T14:12:51;24.10;46.70
39919;DHT22;25589;51.552;13.424;2023-05-18T14:15:17;24.20;46.50
39919;DHT22;25589;51.552;13.424;2023-05-18T14:17:43;24.20;46.60
39919;DHT22;25589;51.552;13.424;2023-05-18T14:20:09;24.60;46.00
39919;DHT22;25589;51.552;13.424;2023-05-18T14:22:35;25.00;45.10
39919;DHT22;25589;51.552;13.424;2023-05-18T14:25:01;25.20;44.40
39919;DHT22;25589;51.552;13.424;2023-05-18T14:27:27;24.50;44.50
39919;DHT22;25589;51.552;13.424;2023-05-18T14:29:52;24.50;45.10
39919;DHT22;25589;51.552;13.424;2023-05-18T14:32:18;24.50;44.90
39919;DHT22;25589;51.552;13.424;2023-05-18T14:34:47;24.60;44.80
39919;DHT22;25589;51.552;13.424;2023-05-18T14:37:16;24.40;45.20
39919;DHT22;25589;51.552;13.424;2023-05-18T14:39:42;24.20;45.70
39919;DHT22;25589;51.552;13.424;2023-05-18T14:42:07;24.00;46.20
39919;DHT22;25589;51.552;13.424;2023-05-18T14:44:33;23.80;46.50
39919;DHT22;25589;51.552;13.424;2023-05-18T14:46:58;23.80;46.60
39919;DHT22;25589;51.552;13.424;2023-05-18T14:49:24;23.60;46.40
39919;DHT22;25589;51.552;13.424;2023-05-18T14:51:49;23.50;47.10
39919;DHT22;25589;51.552;13.424;2023-05-18T14:54:15;23.50;47.10
39919;DHT22;25589;51.552;13.424;2023-05-18T14:56:42;23.20;47.60
39919;DHT22;25589;51.552;13.424;2023-05-18T14:59:07;23.10;47.80
39919;DHT22;25589;51.552;13.424;2023-05-18T15:01:33;23.00;48.10
39919;DHT22;25589;51.552;13.424;2023-05-18T15:03:58;23.00;47.50
39919;DHT22;25589;51.552;13.424;2023-05-18T15:06:24;23.10;47.60
39919;DHT22;25589;51.552;13.424;2023-05-18T15:08:50;23.30;47.00
39919;DHT22;25589;51.552;13.424;2023-05-18T15:11:16;23.30;47.00
39919;DHT22;25589;51.552;13.424;2023-05-18T15:13:41;23.60;46.70
39919;DHT22;25589;51.552;13.424;2023-05-18T15:16:08;23.60;46.30
39919;DHT22;25589;51.552;13.424;2023-05-18T15:18:34;23.70;46.30
39919;DHT22;25589;51.552;13.424;2023-05-18T15:20:59;23.90;46.10
39919;DHT22;25589;51.552;13.424;2023-05-18T15:23:25;23.70;46.40
39919;DHT22;25589;51.552;13.424;2023-05-18T15:25:51;23.30;47.50
39919;DHT22;25589;51.552;13.424;2023-05-18T15:28:16;23.10;47.70
39919;DHT22;25589;51.552;13.424;2023-05-18T15:30:42;22.50;48.30
39919;DHT22;25589;51.552;13.424;2023-05-18T15:33:07;22.40;48.90
39919;DHT22;25589;51.552;13.424;2023-05-18T15:35:33;22.90;48.60
39919;DHT22;25589;51.552;13.424;2023-05-18T15:38:01;23.10;48.30
39919;DHT22;25589;51.552;13.424;2023-05-18T15:40:26;23.20;47.80